Latest Coastal Weather Observations for Croker Island Airport

IDD60701

Issued at 9:05 am CST Sunday 26 October 2014 (issued every 10 minutes, with the page automatically refreshed every 10 minutes)

About coastal observations | Map of coastal stations | Coastal observations for NT | Marine services | Other Formats
Station Details ID: 014308 Name: CROKER ISLAND AIRPORT Lat: -11.16 Lon: 132.48 Height: 9.2 m
Data from the previous 72 hours. | See also: Recent months for locations in Northern Territory
Date/Time
CST
Temp

°C
Wind Pressure Rain
since 9am
mm
Weather Cloud Vis
km
Sea
Height
m
Swell
Dir
 
Speed
knots
Gust
knots
hPa Trend Height
m
Period
s
Dir
26/09:00am 29.9 NE 7 12 1014.5 - - - - - - - - -
26/08:30am 29.7 ENE 5 9 1014.6 - - - - - - - - -
26/08:00am 27.1 ENE 3 4 1014.5 - - - - - - - - -
26/07:30am 27.0 ENE 4 6 1014.1 - - - - - - - - -
26/07:00am 24.6 NE 2 3 1013.7 - - - - - - - - -
26/06:30am 24.1 NE 2 4 1013.6 - - - - - - - - -
26/06:00am 24.3 SSE 2 3 1013.3 - - - - - - - - -
26/05:30am 24.0 CALM 0 0 1013.1 - - - - - - - - -
26/05:00am 24.5 ENE 1 2 1012.9 - - - - - - - - -
26/04:30am 25.1 SE 1 3 1012.7 - - - - - - - - -
26/04:00am 25.4 SSE 2 3 1012.6 - - - - - - - - -
26/03:30am 24.7 SE 3 6 1012.7 - - - - - - - - -
26/03:00am 24.9 SSE 2 4 1012.7 - - - - - - - - -
26/02:30am 25.4 SSW 4 5 1012.8 - - - - - - - - -
26/02:00am 25.4 ENE 4 6 1012.5 - - - - - - - - -
26/01:30am 25.1 NE 4 7 1012.6 - - - - - - - - -
26/01:00am 24.6 ENE 4 5 1013.2 - - - - - - - - -
26/12:30am 24.3 ENE 4 5 1013.4 - - - - - - - - -
26/12:00am 24.1 ENE 3 4 1013.6 - - - - - - - - -
 
Date/Time
CST
Temp

°C
Wind Pressure Rain
since 9am
mm
Weather Cloud Vis
km
Sea
Height
m
Swell
Dir
 
Speed
knots
Gust
knots
hPa Trend Height
m
Period
s
Dir
25/11:30pm 23.4 ENE 3 4 1013.9 - - - - - - - - -
25/11:00pm 23.9 NE 2 4 1013.9 - - - - - - - - -
25/10:30pm 24.4 NE 2 4 1013.9 - - - - - - - - -
25/10:00pm 25.2 NE 2 3 1013.8 - - - - - - - - -
25/09:30pm 25.6 NE 2 4 1013.5 - - - - - - - - -
25/09:00pm 25.8 NE 4 5 1013.1 - - - - - - - - -
25/08:30pm 25.9 NE 4 6 1012.7 - - - - - - - - -
25/08:00pm 26.1 NE 5 7 1012.5 - - - - - - - - -
25/07:30pm 26.2 ENE 5 8 1012.4 - - - - - - - - -
25/07:00pm 26.6 ENE 7 11 1012.3 - - - - - - - - -
25/06:30pm 27.2 NE 8 13 1012.3 - - - - - - - - -
25/06:00pm 27.9 ENE 11 16 1012.2 - - - - - - - - -
25/05:30pm 28.8 ENE 11 17 1012.0 - - - - - - - - -
25/05:00pm 29.4 ENE 11 17 1011.7 - - - - - - - - -
25/04:30pm 29.9 NE 12 17 1011.6 - - - - - - - - -
25/04:00pm 31.0 ENE 13 20 1011.7 - - - - - - - - -
25/03:30pm 31.6 ENE 12 19 1011.9 - - - - - - - - -
25/03:00pm 32.0 E 13 18 1012.0 - - - - - - - - -
25/02:30pm 31.8 E 12 18 1012.2 - - - - - - - - -
25/02:00pm 32.1 ENE 13 19 1012.7 - - - - - - - - -
25/01:30pm 32.5 E 13 20 1013.1 - - - - - - - - -
25/01:00pm 31.6 E 12 19 1013.4 - - - - - - - - -
25/12:30pm 31.0 E 10 15 1013.7 - - - - - - - - -
25/12:00pm 30.4 E 11 16 1014.2 - - - - - - - - -
25/11:30am 31.4 E 11 17 1014.4 - - - - - - - - -
25/11:00am 31.8 E 12 18 1014.6 - - - - - - - - -
25/10:30am 31.0 E 11 16 1014.7 - - - - - - - - -
25/10:00am 31.3 E 9 15 1015.0 - - - - - - - - -
25/09:30am 30.8 ESE 7 14 1015.0 - - - - - - - - -
25/09:00am 30.5 ESE 8 14 1015.1 - - - - - - - - -
25/08:30am 28.1 E 9 13 1015.3 - - - - - - - - -
25/08:00am 28.5 ESE 8 11 1015.0 - - - - - - - - -
25/07:30am 27.4 E 4 6 1014.7 - - - - - - - - -
25/07:00am 25.6 E 4 6 1014.3 - - - - - - - - -
25/06:30am 24.3 E 3 4 1014.0 - - - - - - - - -
25/06:00am 24.7 E 3 4 1013.6 - - - - - - - - -
25/05:30am 25.1 E 3 4 1013.5 - - - - - - - - -
25/05:00am 25.5 E 5 7 1013.1 - - - - - - - - -
25/04:30am 25.9 E 7 10 1012.8 - - - - - - - - -
25/04:00am 25.9 E 7 10 1012.5 - - - - - - - - -
25/03:30am 26.2 E 10 15 1012.2 - - - - - - - - -
25/03:00am 26.3 E 7 13 1012.3 - - - - - - - - -
25/02:30am 26.1 E 9 14 1012.2 - - - - - - - - -
25/02:00am 26.3 ENE 10 14 1012.3 - - - - - - - - -
25/01:30am 26.5 ENE 13 20 1012.5 - - - - - - - - -
25/01:00am 26.4 ENE 10 15 1012.7 - - - - - - - - -
25/12:30am 26.2 ENE 9 14 1012.8 - - - - - - - - -
25/12:00am 26.3 ENE 10 13 1012.9 - - - - - - - - -
 
Date/Time
CST
Temp

°C
Wind Pressure Rain
since 9am
mm
Weather Cloud Vis
km
Sea
Height
m
Swell
Dir
 
Speed
knots
Gust
knots
hPa Trend Height
m
Period
s
Dir
24/11:30pm 25.8 ENE 5 8 1013.2 - - - - - - - - -
24/11:00pm 26.1 ENE 5 7 1013.1 - - - - - - - - -
24/10:30pm 26.3 NE 5 10 1012.9 - - - - - - - - -
24/10:00pm 26.4 NE 6 9 1012.6 - - - - - - - - -
24/09:30pm 26.5 NE 7 11 1012.4 - - - - - - - - -
24/09:00pm 26.5 NE 7 10 1012.3 - - - - - - - - -
24/08:30pm 26.4 NE 5 9 1012.1 - - - - - - - - -
24/08:00pm 26.5 NE 4 7 1011.8 - - - - - - - - -
24/07:30pm 26.6 NE 6 10 1011.5 - - - - - - - - -
24/07:00pm 26.8 NE 5 9 1011.1 - - - - - - - - -
24/06:30pm 27.3 ENE 10 14 1010.8 - - - - - - - - -
24/06:00pm 28.0 ENE 10 16 1010.7 - - - - - - - - -
24/05:30pm 28.9 ENE 12 18 1010.6 - - - - - - - - -
24/05:00pm 30.0 NE 10 16 1010.4 - - - - - - - - -
24/04:30pm 30.8 NE 10 14 1010.5 - - - - - - - - -
24/04:00pm 31.1 E 11 18 1010.5 - - - - - - - - -
24/03:30pm 31.6 E 14 20 1010.5 - - - - - - - - -
24/03:00pm 31.9 E 14 20 1010.8 - - - - - - - - -
24/02:30pm 31.4 E 13 21 1011.2 - - - - - - - - -
24/02:00pm 32.1 ENE 13 18 1011.5 - - - - - - - - -
24/01:30pm 31.5 ENE 13 21 1011.9 - - - - - - - - -
24/01:00pm 31.3 ENE 11 19 1012.2 - - - - - - - - -
24/12:30pm 32.3 E 12 21 1012.9 - - - - - - - - -
24/12:00pm 32.3 E 13 19 1013.4 - - - - - - - - -
24/11:30am 31.4 ENE 12 17 1013.7 - - - - - - - - -
24/11:00am 31.4 E 11 17 1013.9 - - - - - - - - -
24/10:30am 31.9 E 11 16 1014.1 - - - - - - - - -
24/10:00am 31.7 E 11 17 1014.0 - - - - - - - - -
24/09:30am 31.3 E 9 14 1014.1 - - - - - - - - -
24/09:00am 30.8 E 10 13 1014.2 - - - - - - - - -
24/08:30am 30.1 E 8 16 1014.2 - - - - - - - - -
24/08:00am 29.0 E 8 12 1013.9 - - - - - - - - -
24/07:30am 27.7 ENE 4 6 1013.6 - - - - - - - - -
24/07:00am 26.0 ENE 2 3 1013.5 - - - - - - - - -
24/06:30am 24.8 ENE 2 3 1013.5 - - - - - - - - -
24/06:00am 24.9 E 3 4 1013.1 - - - - - - - - -
24/05:30am 25.1 E 3 4 1012.8 - - - - - - - - -
24/05:00am 25.6 E 2 5 1012.5 - - - - - - - - -
24/04:30am 25.9 ESE 3 5 1012.4 - - - - - - - - -
24/04:00am 26.1 SE 3 5 1012.0 - - - - - - - - -
24/03:30am 25.6 S 5 8 1011.9 - - - - - - - - -
24/03:00am 25.3 ENE 3 6 1011.3 - - - - - - - - -
24/02:30am 25.4 NE 5 9 1011.6 - - - - - - - - -
24/02:00am 25.3 NE 4 6 1012.2 - - - - - - - - -
24/01:30am 25.6 ENE 5 7 1012.6 - - - - - - - - -
24/01:00am 25.7 ENE 5 7 1013.0 - - - - - - - - -
24/12:30am 25.8 ENE 4 7 1013.5 - - - - - - - - -
24/12:00am 26.0 NE 4 5 1013.7 - - - - - - - - -
 
Date/Time
CST
Temp

°C
Wind Pressure Rain
since 9am
mm
Weather Cloud Vis
km
Sea
Height
m
Swell
Dir
 
Speed
knots
Gust
knots
hPa Trend Height
m
Period
s
Dir
23/11:30pm 26.1 ENE 5 7 1013.9 - - - - - - - - -
23/11:00pm 26.1 NE 5 7 1013.7 - - - - - - - - -
23/10:30pm 25.9 ENE 5 7 1013.5 - - - - - - - - -
23/10:00pm 26.2 NE 5 9 1013.1 - - - - - - - - -
23/09:30pm 26.1 NE 6 10 1012.6 - - - - - - - - -
23/09:00pm 26.2 ENE 6 10 1012.5 - - - - - - - - -
23/08:30pm 26.3 NE 4 7 1012.2 - - - - - - - - -
23/08:00pm 26.2 ENE 4 6 1011.9 - - - - - - - - -
23/07:30pm 26.6 ENE 5 7 1011.6 - - - - - - - - -
23/07:00pm 27.0 ENE 6 9 1011.4 - - - - - - - - -
23/06:30pm 27.7 NE 7 11 1011.1 - - - - - - - - -
23/06:00pm 28.6 NE 7 10 1010.7 - - - - - - - - -
23/05:30pm 29.5 NE 7 10 1010.5 - - - - - - - - -
23/05:00pm 30.4 ENE 10 14 1010.1 - - - - - - - - -
23/04:30pm 30.8 NE 9 14 1009.9 - - - - - - - - -
23/04:00pm 31.5 ENE 9 15 1010.2 - - - - - - - - -
23/03:30pm 32.1 NE 10 16 1010.4 - - - - - - - - -
23/03:00pm 32.4 ENE 11 15 1010.6 - - - - - - - - -
23/02:30pm 31.9 NE 12 15 1011.0 - - - - - - - - -
23/02:00pm 32.5 E 11 17 1011.3 - - - - - - - - -
23/01:30pm 32.5 ENE 12 18 1011.7 - - - - - - - - -
23/01:00pm 32.2 E 13 19 1012.2 - - - - - - - - -
23/12:30pm 33.0 E 13 22 1012.7 - - - - - - - - -
23/12:00pm 32.4 E 14 20 1013.1 - - - - - - - - -
23/11:30am 31.9 E 12 17 1013.4 - - - - - - - - -
23/11:00am 31.6 ENE 8 13 1013.6 - - - - - - - - -
23/10:30am 31.3 E 8 13 1013.9 - - - - - - - - -
23/10:00am 31.1 E 8 14 1014.1 - - - - - - - - -
23/09:30am 30.6 E 7 12 1014.1 - - - - - - - - -

Other Formats:

Comma delimited format used in spreadsheet applications
http://www.bom.gov.au/fwo/IDD60701/IDD60701.94108.axf

JavaScript Object Notation format (JSON) in row-major order
http://www.bom.gov.au/fwo/IDD60701/IDD60701.94108.json